Archival Weather

Heathrow

London, United Kingdom (EGLL)

Report from: Monday, July 18, 2022 12:20 AM BST
Current time: Saturday, June 22, 2024 8:33 AM BST

Current weather – Weather history – Daily summaries
Weather forecast

Temperature21.0°C (69.8°F)
Dew point8.0°C (46.4°F)
Winds 3 kts (1.5 m/s, 3.5 mph) East (80°)
Visibility6.2 mi. (10 km)
Clouds Sky clear
Altimeter30.18 in.Hg (1022 mB)
Relative humidity43 %
Density altitude562 ft. (171 m)
Remarks Fully automated report
Corrected report
No clouds detected
No significant changes expected in the next two hours
Flight conditions Visual Meteorological Conditions
Raw dataCOR EGLL 172320Z AUTO 08003KT 9999 NCD 21/08 Q1022 NOSIG
An error has occurred. This application may no longer respond until reloaded. Reload 🗙